Time;durP1;ratioP1;P1;durP2;ratioP2;P2;SDS_P1;SDS_P2;PMS_P1;PMS_P2;Temp;Humidity;BMP_temperature;BMP_pressure;BME280_temperature;BME280_humidity;BME280_pressure;Samples;Min_cycle;Max_cycle;Signal;HPM_P1;HPM_P2
2022/07/22 00:00:08;;;;;;;9.35;3.67;;;;;;;17.05;63.11;93600.16;5051904;28;20024;-40
2022/07/22 00:02:34;;;;;;;10.63;9.60;;;;;;;17.23;62.78;93604.25;5070648;28;20086;-41
2022/07/22 00:04:59;;;;;;;7.22;5.30;;;;;;;16.98;63.90;93609.41;5071352;28;20041;-41
2022/07/22 00:07:25;;;;;;;9.70;8.43;;;;;;;16.92;64.09;93606.91;5064016;28;20074;-40
2022/07/22 00:09:50;;;;;;;10.48;4.32;;;;;;;16.98;63.41;93610.13;5072225;28;20053;-40
2022/07/22 00:12:16;;;;;;;6.28;4.40;;;;;;;17.00;62.90;93596.31;5071636;28;20078;-39
2022/07/22 00:14:41;;;;;;;6.72;4.30;;;;;;;16.82;63.60;93597.06;5072024;28;20111;-39
2022/07/22 00:17:07;;;;;;;13.05;7.45;;;;;;;16.92;63.45;93614.53;5069773;28;20472;-39
2022/07/22 00:19:33;;;;;;;7.13;6.50;;;;;;;16.77;63.81;93604.41;5070378;28;20089;-38
2022/07/22 00:21:58;;;;;;;5.05;4.65;;;;;;;16.84;63.59;93608.38;5071862;28;20056;-38
2022/07/22 00:24:24;;;;;;;8.80;4.65;;;;;;;16.81;63.55;93615.84;5071514;28;20013;-38
2022/07/22 00:26:49;;;;;;;6.68;4.85;;;;;;;16.69;64.15;93612.19;5071726;28;20052;-38
2022/07/22 00:29:14;;;;;;;16.73;15.63;;;;;;;16.73;63.90;93611.72;5071772;28;20020;-38
2022/07/22 00:31:40;;;;;;;13.60;6.13;;;;;;;16.72;64.38;93613.06;5071790;28;20025;-38
2022/07/22 00:34:06;;;;;;;7.35;6.13;;;;;;;16.59;64.72;93609.38;5071433;28;20089;-37
2022/07/22 00:36:31;;;;;;;8.57;5.20;;;;;;;16.65;64.69;93609.81;5071655;28;20483;-38
2022/07/22 00:38:57;;;;;;;14.85;5.95;;;;;;;16.64;64.67;93613.19;5071540;28;20401;-38
2022/07/22 00:41:22;;;;;;;10.50;5.47;;;;;;;16.67;64.62;93614.81;5071235;28;20390;-38
2022/07/22 00:44:08;;;;;;;30.92;28.60;;;;;;;16.55;64.69;93614.66;5071092;28;20056;-38
2022/07/22 00:46:35;;;;;;;14.57;7.13;;;;;;;16.67;64.14;93609.97;5071133;28;20012;-38
2022/07/22 00:49:01;;;;;;;11.77;6.47;;;;;;;16.50;64.93;93614.94;5071076;28;20494;-38
2022/07/22 00:51:28;;;;;;;12.18;10.98;;;;;;;16.33;65.35;93612.22;5071011;28;20021;-38
2022/07/22 00:53:54;;;;;;;7.78;5.95;;;;;;;16.28;65.07;93610.44;5070904;28;20088;-38
2022/07/22 00:56:20;;;;;;;7.78;4.78;;;;;;;16.27;65.09;93600.59;5070734;28;20028;-38
2022/07/22 00:58:48;;;;;;;9.70;4.88;;;;;;;16.34;65.07;93600.50;5073181;28;20031;-38
2022/07/22 01:01:14;;;;;;;7.05;4.13;;;;;;;16.27;65.46;93601.34;5070851;28;20509;-38
2022/07/22 01:03:39;;;;;;;8.65;4.70;;;;;;;16.18;66.03;93598.53;5070464;28;20128;-38
2022/07/22 01:06:05;;;;;;;6.00;4.93;;;;;;;16.12;65.64;93603.66;5090595;28;20032;-38
2022/07/22 01:08:32;;;;;;;4.85;3.75;;;;;;;16.22;65.19;93610.00;5091171;28;20634;-38
2022/07/22 01:11:09;;;;;;;4.90;3.88;;;;;;;16.32;64.35;93608.72;5091234;28;20032;-38
2022/07/22 01:13:36;;;;;;;6.60;4.60;;;;;;;16.21;64.68;93605.72;5091055;28;20099;-37
2022/07/22 01:16:02;;;;;;;10.55;5.38;;;;;;;16.03;65.70;93593.94;5091085;28;20024;-37
2022/07/22 01:18:28;;;;;;;13.93;5.88;;;;;;;16.02;65.36;93609.19;5090992;28;20038;-38
2022/07/22 01:20:53;;;;;;;8.07;5.57;;;;;;;15.88;65.93;93610.88;5090172;28;20024;-41
2022/07/22 01:23:19;;;;;;;10.32;5.45;;;;;;;15.82;66.07;93604.84;5072895;28;20035;-40
2022/07/22 01:25:44;;;;;;;7.18;4.65;;;;;;;15.75;66.25;93608.47;5036018;28;20025;-41
2022/07/22 01:28:10;;;;;;;7.40;5.32;;;;;;;15.86;66.29;93610.72;5070610;28;20032;-40
2022/07/22 01:30:35;;;;;;;10.82;4.72;;;;;;;15.85;66.80;93612.78;5070232;28;20066;-41
2022/07/22 01:33:01;;;;;;;5.70;4.43;;;;;;;15.98;66.26;93611.69;5070390;28;20028;-43
2022/07/22 01:35:26;;;;;;;7.85;7.05;;;;;;;15.77;66.90;93600.28;5070271;28;20430;-42
2022/07/22 01:37:51;;;;;;;6.93;3.95;;;;;;;15.79;67.21;93609.53;5070399;28;20073;-41
2022/07/22 01:40:17;;;;;;;6.85;4.00;;;;;;;15.66;67.52;93600.81;5070064;28;20040;-42
2022/07/22 01:42:42;;;;;;;8.55;5.13;;;;;;;15.68;67.46;93592.66;5070292;28;20032;-41
2022/07/22 01:45:08;;;;;;;8.88;4.68;;;;;;;15.73;67.61;93599.97;5070147;28;20054;-41
2022/07/22 01:47:34;;;;;;;7.15;4.88;;;;;;;15.74;67.22;93593.09;5070051;28;20036;-42
2022/07/22 01:49:59;;;;;;;9.40;4.50;;;;;;;15.86;66.17;93602.38;5070013;28;20036;-40
2022/07/22 01:52:25;;;;;;;7.40;5.10;;;;;;;15.63;67.00;93605.50;5070129;28;20032;-43
2022/07/22 01:54:50;;;;;;;6.68;4.60;;;;;;;15.58;67.39;93602.97;5070151;28;20020;-43
2022/07/22 01:57:16;;;;;;;10.13;5.00;;;;;;;15.55;67.55;93604.84;5070031;28;20393;-43
2022/07/22 01:59:41;;;;;;;7.72;4.68;;;;;;;15.49;67.71;93603.66;5070483;28;20045;-42
2022/07/22 02:02:07;;;;;;;6.28;4.72;;;;;;;15.49;67.39;93606.44;5069276;28;20031;-39
2022/07/22 02:04:32;;;;;;;5.90;5.03;;;;;;;15.35;67.46;93600.50;5069754;28;20052;-40
2022/07/22 02:06:58;;;;;;;5.43;4.40;;;;;;;15.48;66.84;93593.84;5070297;28;20032;-40
2022/07/22 02:09:23;;;;;;;6.15;4.70;;;;;;;15.20;67.88;93600.69;5069959;28;20466;-37
2022/07/22 02:11:48;;;;;;;5.53;4.65;;;;;;;15.22;68.15;93594.53;5070263;28;20095;-40
2022/07/22 02:14:14;;;;;;;7.03;5.20;;;;;;;15.31;67.39;93593.88;5070103;28;20029;-40
2022/07/22 02:16:39;;;;;;;10.80;5.30;;;;;;;15.49;66.88;93586.97;5070235;28;20039;-39
2022/07/22 02:19:05;;;;;;;12.10;6.57;;;;;;;15.49;66.45;93593.25;5069833;28;20142;-39
2022/07/22 02:21:30;;;;;;;9.52;6.80;;;;;;;15.29;67.08;93593.72;5069864;28;20029;-39
2022/07/22 02:23:56;;;;;;;7.32;5.80;;;;;;;15.28;67.41;93604.09;5070136;28;20020;-39
2022/07/22 02:26:21;;;;;;;9.85;5.85;;;;;;;15.28;67.34;93595.00;5070032;28;20493;-39
2022/07/22 02:28:47;;;;;;;5.57;4.32;;;;;;;15.15;67.03;93587.75;5069846;28;20474;-39
2022/07/22 02:31:12;;;;;;;6.50;4.57;;;;;;;15.09;67.10;93579.66;5071377;28;20032;-40
2022/07/22 02:33:38;;;;;;;4.95;4.45;;;;;;;15.35;66.17;93600.50;5073831;28;20029;-40
2022/07/22 02:36:04;;;;;;;7.10;4.25;;;;;;;15.35;66.31;93600.50;5073854;28;20614;-39
2022/07/22 02:38:29;;;;;;;5.20;3.78;;;;;;;15.33;66.34;93605.16;5073903;28;20024;-39
2022/07/22 02:40:54;;;;;;;5.85;4.45;;;;;;;15.23;66.93;93593.22;5073633;28;20103;-41
2022/07/22 02:43:20;;;;;;;4.53;4.13;;;;;;;15.19;66.90;93605.50;5073538;28;20028;-40
2022/07/22 02:45:45;;;;;;;4.35;3.95;;;;;;;15.30;66.23;93597.94;5073729;28;20028;-39
2022/07/22 02:48:11;;;;;;;6.25;4.47;;;;;;;15.08;66.77;93606.00;5073433;28;20517;-40
2022/07/22 02:50:37;;;;;;;6.15;4.03;;;;;;;15.04;67.08;93604.94;5073253;28;20024;-40
2022/07/22 02:53:03;;;;;;;5.50;4.22;;;;;;;14.72;68.15;93597.53;5073586;28;20036;-42
2022/07/22 02:55:28;;;;;;;5.50;4.25;;;;;;;14.88;68.31;93609.94;5073097;28;20387;-43
2022/07/22 02:57:54;;;;;;;10.48;4.80;;;;;;;14.87;68.05;93589.03;5073567;28;20082;-45
2022/07/22 03:00:20;;;;;;;26.80;10.30;;;;;;;14.82;66.99;93606.69;5073038;28;20120;-43
2022/07/22 03:02:45;;;;;;;27.27;10.57;;;;;;;15.03;66.47;93595.13;5072835;28;20036;-42
2022/07/22 03:05:12;;;;;;;21.80;9.95;;;;;;;15.16;66.04;93592.75;5073100;28;20132;-42
2022/07/22 03:07:37;;;;;;;29.90;10.85;;;;;;;15.25;65.81;93596.16;5072828;28;20039;-44
2022/07/22 03:10:04;;;;;;;20.17;9.88;;;;;;;15.06;66.55;93593.97;5073239;28;20475;-44
2022/07/22 03:12:29;;;;;;;14.65;8.07;;;;;;;14.82;67.42;93592.78;5072853;28;20028;-44
2022/07/22 03:14:55;;;;;;;12.48;6.60;;;;;;;14.66;67.91;93597.03;5072820;28;20098;-45
2022/07/22 03:17:20;;;;;;;8.13;4.70;;;;;;;14.57;68.39;93599.72;5073200;28;20106;-43
2022/07/22 03:19:45;;;;;;;7.35;4.60;;;;;;;14.65;68.16;93601.13;5072810;28;20058;-42
2022/07/22 03:22:11;;;;;;;8.88;4.20;;;;;;;14.85;67.55;93597.22;5073020;28;20103;-43
2022/07/22 03:24:36;;;;;;;7.85;5.05;;;;;;;14.85;68.48;93596.47;5072960;28;20044;-43
2022/07/22 03:27:02;;;;;;;7.53;4.53;;;;;;;14.94;68.00;93601.38;5073022;28;20044;-43
2022/07/22 03:29:27;;;;;;;4.80;4.28;;;;;;;15.01;67.50;93595.72;5054834;28;20031;-42
2022/07/22 03:31:53;;;;;;;7.05;4.40;;;;;;;14.96;67.76;93599.50;5072922;28;20166;-42
2022/07/22 03:34:18;;;;;;;6.13;4.32;;;;;;;14.75;68.08;93601.22;5072379;28;20490;-42
2022/07/22 03:36:44;;;;;;;6.55;4.28;;;;;;;14.75;68.20;93606.78;5072537;28;20029;-42
2022/07/22 03:39:09;;;;;;;7.40;4.78;;;;;;;14.93;67.38;93600.63;5072428;28;20021;-43
2022/07/22 03:41:35;;;;;;;4.80;4.28;;;;;;;14.78;67.51;93597.28;5072389;28;20036;-42
2022/07/22 03:44:00;;;;;;;7.40;4.50;;;;;;;14.65;68.01;93603.16;5071112;28;20028;-43
2022/07/22 03:46:25;;;;;;;7.88;4.47;;;;;;;14.70;68.13;93600.16;5072240;28;20028;-44
2022/07/22 03:48:51;;;;;;;6.85;4.55;;;;;;;14.82;68.06;93606.69;5072622;28;20036;-43
2022/07/22 03:51:16;;;;;;;6.85;5.18;;;;;;;14.76;68.10;93606.19;5072506;28;20113;-42
2022/07/22 03:53:42;;;;;;;5.68;4.50;;;;;;;14.62;68.53;93618.22;5072575;28;20016;-44
2022/07/22 03:56:07;;;;;;;7.63;4.57;;;;;;;14.97;67.88;93619.66;5072309;28;20040;-43
2022/07/22 03:58:33;;;;;;;8.02;5.00;;;;;;;15.07;67.49;93621.22;5072156;28;20032;-42
2022/07/22 04:00:58;;;;;;;8.27;5.07;;;;;;;15.02;67.62;93613.88;5072060;28;20025;-45
2022/07/22 04:03:24;;;;;;;6.25;4.65;;;;;;;14.83;68.38;93618.53;5071527;28;20113;-44
2022/07/22 04:05:49;;;;;;;8.57;5.25;;;;;;;14.78;68.73;93619.50;5072097;28;20025;-42
2022/07/22 04:08:17;;;;;;;7.68;4.75;;;;;;;14.92;68.89;93607.47;5072109;28;20055;-42
2022/07/22 04:10:42;;;;;;;4.95;4.45;;;;;;;15.17;68.10;93616.47;5071955;28;20043;-43
2022/07/22 04:13:08;;;;;;;14.77;5.40;;;;;;;15.23;68.54;93615.47;5071716;28;20040;-42
2022/07/22 04:15:33;;;;;;;7.93;4.65;;;;;;;15.26;68.69;93614.31;5072057;28;20028;-43
2022/07/22 04:17:59;;;;;;;7.25;5.22;;;;;;;15.31;68.88;93621.69;5071738;28;20033;-43
2022/07/22 04:20:24;;;;;;;6.15;4.78;;;;;;;15.42;68.39;93619.09;5071145;28;20032;-43
2022/07/22 04:22:50;;;;;;;7.18;6.47;;;;;;;15.33;69.20;93613.50;5071686;28;20542;-43
2022/07/22 04:25:15;;;;;;;8.13;7.32;;;;;;;15.45;68.32;93620.78;5071598;28;20021;-42
2022/07/22 04:27:40;;;;;;;9.02;7.90;;;;;;;15.60;67.87;93625.41;5071453;28;20025;-43
2022/07/22 04:30:07;;;;;;;8.85;7.95;;;;;;;15.67;68.10;93624.56;5071686;28;20020;-43
2022/07/22 04:32:32;;;;;;;7.72;6.80;;;;;;;15.55;68.47;93618.06;5062867;28;20029;-45
2022/07/22 04:34:58;;;;;;;9.98;8.55;;;;;;;15.56;69.20;93617.47;5068922;28;20089;-42
2022/07/22 04:37:23;;;;;;;16.17;8.20;;;;;;;15.69;69.34;93622.69;5069193;28;20059;-42
2022/07/22 04:39:49;;;;;;;11.80;9.55;;;;;;;15.73;69.23;93625.78;5069148;28;20496;-41
2022/07/22 04:42:14;;;;;;;15.32;11.43;;;;;;;15.99;68.56;93626.31;5068682;28;20063;-41
2022/07/22 04:44:39;;;;;;;13.15;10.07;;;;;;;16.00;68.96;93633.38;5068531;28;20025;-41
2022/07/22 04:47:05;;;;;;;12.48;9.82;;;;;;;16.08;69.25;93620.78;5069020;28;20024;-41
2022/07/22 04:49:31;;;;;;;12.93;9.35;;;;;;;16.18;68.98;93624.34;5071016;28;20024;-41
2022/07/22 04:51:56;;;;;;;15.82;8.65;;;;;;;16.24;68.62;93619.22;5071311;28;20024;-41
2022/07/22 04:54:21;;;;;;;12.40;9.70;;;;;;;16.15;69.52;93627.56;5070028;28;20024;-42
2022/07/22 04:56:47;;;;;;;11.60;8.35;;;;;;;16.37;68.92;93618.09;5070899;28;20056;-42
2022/07/22 04:59:12;;;;;;;14.52;8.82;;;;;;;16.41;69.27;93627.50;5070994;28;20471;-42
2022/07/22 05:01:38;;;;;;;10.57;7.70;;;;;;;16.30;69.41;93611.34;5070720;28;20028;-42
2022/07/22 05:04:04;;;;;;;10.93;7.80;;;;;;;16.58;69.39;93613.50;5070600;28;20130;-42
2022/07/22 05:06:29;;;;;;;11.82;6.97;;;;;;;16.68;68.84;93625.38;5070819;28;20573;-43
2022/07/22 05:08:55;;;;;;;12.80;6.88;;;;;;;16.89;68.47;93635.97;5070843;28;20116;-44
2022/07/22 05:11:20;;;;;;;12.50;7.07;;;;;;;17.03;68.28;93634.22;5070688;28;20085;-44
2022/07/22 05:13:46;;;;;;;8.20;6.20;;;;;;;16.98;68.92;93626.88;5070596;28;20024;-44
2022/07/22 05:16:11;;;;;;;9.38;6.45;;;;;;;17.19;69.58;93635.41;5069760;28;20039;-44
2022/07/22 05:18:37;;;;;;;8.90;7.15;;;;;;;17.19;69.45;93631.88;5070761;28;20035;-42
2022/07/22 05:21:03;;;;;;;10.18;6.20;;;;;;;17.29;70.22;93633.34;5070732;28;20521;-42
2022/07/22 05:23:28;;;;;;;9.32;6.90;;;;;;;17.43;70.32;93630.84;5069762;28;20035;-44
2022/07/22 05:25:54;;;;;;;13.30;5.82;;;;;;;17.51;69.98;93625.84;5070381;28;20417;-43
2022/07/22 05:28:20;;;;;;;13.90;7.75;;;;;;;17.63;70.53;93637.16;5070494;28;20035;-44
2022/07/22 05:30:45;;;;;;;13.20;6.97;;;;;;;17.70;70.73;93630.66;5070589;28;20032;-44
2022/07/22 05:33:11;;;;;;;9.02;6.97;;;;;;;17.81;70.49;93633.56;5070199;28;20558;-44
2022/07/22 05:35:36;;;;;;;12.60;6.05;;;;;;;17.90;69.14;93632.81;5070523;28;20544;-43
2022/07/22 05:38:02;;;;;;;7.88;5.22;;;;;;;18.03;69.20;93632.34;5070470;28;20417;-43
2022/07/22 05:40:28;;;;;;;9.05;5.85;;;;;;;18.13;69.34;93635.81;5066250;28;20417;-43
2022/07/22 05:42:54;;;;;;;6.28;5.63;;;;;;;18.21;68.51;93640.50;5069839;28;20123;-42
2022/07/22 05:45:19;;;;;;;13.50;6.00;;;;;;;18.33;68.22;93627.34;5070159;28;20025;-41
2022/07/22 05:47:45;;;;;;;18.65;5.93;;;;;;;18.47;68.01;93639.53;5070548;28;20108;-42
2022/07/22 05:50:11;;;;;;;10.70;6.35;;;;;;;18.56;67.74;93638.75;5069995;28;20024;-42
2022/07/22 05:52:36;;;;;;;8.93;6.20;;;;;;;18.71;68.47;93638.38;5070237;28;20024;-44
2022/07/22 05:55:02;;;;;;;14.90;6.25;;;;;;;18.84;68.58;93640.66;5070051;28;20551;-43
2022/07/22 05:57:28;;;;;;;14.90;5.88;;;;;;;18.97;67.72;93634.53;5070333;28;20028;-42
2022/07/22 05:59:53;;;;;;;16.42;7.00;;;;;;;19.06;67.49;93639.28;5069764;28;20425;-44
2022/07/22 06:02:19;;;;;;;11.90;6.55;;;;;;;19.12;66.15;93622.91;5069018;28;20032;-44
2022/07/22 06:04:44;;;;;;;13.10;6.85;;;;;;;19.25;66.71;93632.84;5069994;28;20509;-43
2022/07/22 06:07:10;;;;;;;9.48;6.95;;;;;;;19.35;66.58;93639.84;5070009;28;20144;-45
2022/07/22 06:09:35;;;;;;;9.43;6.57;;;;;;;19.46;65.75;93641.22;5069961;28;20500;-46
2022/07/22 06:12:01;;;;;;;9.80;6.00;;;;;;;19.59;66.10;93637.88;5069902;28;20081;-43
2022/07/22 06:14:26;;;;;;;9.73;6.93;;;;;;;19.81;65.69;93633.66;5069838;28;20036;-43
2022/07/22 06:16:52;;;;;;;6.95;6.05;;;;;;;19.89;65.08;93636.22;5069605;28;20021;-45
2022/07/22 06:19:17;;;;;;;10.40;5.95;;;;;;;19.98;65.03;93635.41;5070003;28;20081;-49
2022/07/22 06:21:43;;;;;;;7.50;5.82;;;;;;;20.12;64.86;93633.50;5070079;28;20409;-43
2022/07/22 06:24:08;;;;;;;11.95;5.20;;;;;;;20.02;63.70;93607.63;5066899;28;20107;-42
2022/07/22 06:26:33;;;;;;;7.70;6.35;;;;;;;20.23;64.07;93633.50;5069611;28;20031;-43
2022/07/22 06:28:59;;;;;;;11.18;6.28;;;;;;;20.60;62.66;93633.63;5069374;28;20025;-41
2022/07/22 06:31:24;;;;;;;13.20;6.00;;;;;;;20.78;62.24;93634.72;5070056;28;20029;-41
2022/07/22 06:33:50;;;;;;;8.80;6.75;;;;;;;20.82;62.98;93629.34;5069555;28;20416;-41
2022/07/22 06:36:17;;;;;;;10.98;7.07;;;;;;;20.93;62.53;93630.69;5069862;28;20021;-41
2022/07/22 06:38:42;;;;;;;11.40;7.47;;;;;;;20.98;62.92;93629.56;5069945;28;20489;-41
2022/07/22 06:41:08;;;;;;;8.35;6.40;;;;;;;21.23;59.72;93618.41;5069517;28;20028;-42
2022/07/22 06:43:33;;;;;;;11.07;6.97;;;;;;;21.33;60.77;93619.00;5069241;28;20029;-41
2022/07/22 06:45:59;;;;;;;15.80;9.38;;;;;;;21.63;58.82;93628.41;5069133;28;20029;-41
2022/07/22 06:48:24;;;;;;;21.80;10.32;;;;;;;21.60;58.51;93624.03;5044454;28;20521;-44
2022/07/22 06:50:50;;;;;;;16.15;9.80;;;;;;;21.86;57.15;93626.25;5062992;28;20441;-44
2022/07/22 06:53:15;;;;;;;15.88;10.23;;;;;;;22.01;57.27;93627.00;5061434;28;20036;-43
2022/07/22 06:55:41;;;;;;;8.30;5.50;;;;;;;22.01;55.73;93627.75;5065441;28;20514;-44
2022/07/22 06:58:06;;;;;;;16.73;11.35;;;;;;;22.26;56.16;93629.78;5066100;28;20086;-42
2022/07/22 07:00:32;;;;;;;7.70;5.82;;;;;;;22.30;55.84;93630.75;5064265;28;20041;-45
2022/07/22 07:02:59;;;;;;;7.28;4.53;;;;;;;22.31;55.08;93623.00;5063851;28;20017;-43
2022/07/22 07:05:24;;;;;;;8.40;4.60;;;;;;;22.56;53.76;93629.31;5064762;28;20054;-43
2022/07/22 07:07:50;;;;;;;10.10;4.40;;;;;;;22.54;53.20;93608.78;5062098;28;20138;-41
2022/07/22 07:10:16;;;;;;;13.60;4.53;;;;;;;22.81;54.19;93634.16;5068871;28;20028;-48
2022/07/22 07:12:42;;;;;;;11.35;4.75;;;;;;;22.86;54.59;93629.44;5065440;28;20037;-44
2022/07/22 07:15:08;;;;;;;7.15;4.72;;;;;;;22.97;54.86;93637.06;5068998;28;20028;-45
2022/07/22 07:17:33;;;;;;;9.88;4.93;;;;;;;23.09;53.01;93637.66;5069831;28;20555;-45
2022/07/22 07:19:59;;;;;;;6.38;4.53;;;;;;;23.32;51.59;93643.09;5072300;28;20032;-44
2022/07/22 07:22:24;;;;;;;5.07;3.75;;;;;;;23.53;50.97;93642.75;5072800;28;20488;-46
2022/07/22 07:24:50;;;;;;;8.60;4.88;;;;;;;23.69;49.55;93632.25;5067074;28;20102;-45
2022/07/22 07:27:15;;;;;;;4.70;3.90;;;;;;;23.82;49.21;93636.41;5072442;28;20033;-43
2022/07/22 07:29:41;;;;;;;10.18;3.85;;;;;;;24.20;48.94;93637.50;5070839;28;20029;-44
2022/07/22 07:32:06;;;;;;;7.93;4.03;;;;;;;24.79;47.35;93630.34;5070384;28;20028;-44
2022/07/22 07:34:31;;;;;;;4.93;3.47;;;;;;;25.62;45.26;93631.81;5071217;28;20040;-44
2022/07/22 07:36:57;;;;;;;18.67;4.72;;;;;;;26.33;43.63;93635.38;5072513;28;20028;-45
2022/07/22 07:39:23;;;;;;;7.95;4.03;;;;;;;27.62;40.04;93634.41;5072813;28;20398;-45
2022/07/22 07:41:50;;;;;;;4.82;3.47;;;;;;;28.96;37.30;93634.38;5072578;28;20032;-42
2022/07/22 07:44:16;;;;;;;5.47;4.10;;;;;;;29.80;35.55;93636.00;5069036;28;20028;-44
2022/07/22 07:46:41;;;;;;;7.80;3.97;;;;;;;30.42;35.03;93637.56;5068787;28;20028;-44
2022/07/22 07:49:07;;;;;;;5.25;3.45;;;;;;;31.43;33.45;93645.44;5069518;28;20307;-42
2022/07/22 07:51:32;;;;;;;4.93;3.80;;;;;;;32.30;31.48;93635.53;5069846;28;20036;-43
2022/07/22 07:53:58;;;;;;;5.88;3.38;;;;;;;32.64;31.67;93651.13;5069769;28;20032;-44
2022/07/22 07:56:23;;;;;;;8.93;3.72;;;;;;;33.04;29.69;93647.41;5069506;28;20452;-43
2022/07/22 07:58:49;;;;;;;4.05;3.17;;;;;;;33.21;29.96;93652.63;5071190;28;20070;-42
2022/07/22 08:01:14;;;;;;;5.07;3.60;;;;;;;33.18;28.44;93653.31;5072044;28;20031;-43
2022/07/22 08:03:40;;;;;;;7.80;3.20;;;;;;;33.38;27.99;93650.69;5071498;28;20040;-42
2022/07/22 08:06:06;;;;;;;4.25;3.47;;;;;;;33.59;27.65;93644.50;5071978;28;20020;-42
2022/07/22 08:08:31;;;;;;;4.10;2.85;;;;;;;33.50;27.83;93653.69;5071930;28;20086;-44
2022/07/22 08:10:56;;;;;;;5.97;3.30;;;;;;;32.99;28.24;93648.72;5072286;28;20024;-41
2022/07/22 08:13:22;;;;;;;4.55;3.40;;;;;;;33.20;28.83;93654.03;5071838;28;20535;-41
2022/07/22 08:15:47;;;;;;;5.57;3.72;;;;;;;33.50;28.28;93653.69;5071785;28;20445;-42
2022/07/22 08:18:13;;;;;;;6.80;3.25;;;;;;;33.90;27.00;93657.00;5071698;28;20070;-43
2022/07/22 08:20:39;;;;;;;4.70;3.30;;;;;;;34.22;29.15;93656.59;5071933;28;20028;-42
2022/07/22 08:23:04;;;;;;;5.95;2.80;;;;;;;34.39;27.37;93649.63;5071698;28;20465;-42
2022/07/22 08:25:30;;;;;;;4.20;3.17;;;;;;;34.42;25.91;93661.78;5071595;28;20089;-43
2022/07/22 08:27:55;;;;;;;9.15;2.92;;;;;;;34.24;25.54;93663.09;5071273;28;20033;-42
2022/07/22 08:30:23;;;;;;;3.30;2.55;;;;;;;34.32;25.30;93660.31;5071447;28;20115;-42
2022/07/22 08:32:48;;;;;;;4.07;2.65;;;;;;;34.31;24.78;93667.44;5071039;28;20037;-44
2022/07/22 08:35:14;;;;;;;3.47;2.42;;;;;;;34.46;23.61;93665.41;5070795;28;20438;-42
2022/07/22 08:37:39;;;;;;;8.38;2.95;;;;;;;34.34;25.23;93657.47;5071542;28;20028;-43
2022/07/22 08:40:06;;;;;;;5.25;2.75;;;;;;;35.26;24.01;93673.16;5071282;28;20032;-43
2022/07/22 08:42:37;;;;;;;18.98;10.27;;;;;;;34.86;24.74;93662.88;5071230;28;20024;-43
2022/07/22 08:45:03;;;;;;;8.23;4.82;;;;;;;35.12;24.67;93658.72;5071020;28;20040;-42
2022/07/22 08:47:29;;;;;;;5.18;3.13;;;;;;;35.17;23.16;93663.06;5053654;28;20024;-42
2022/07/22 08:49:55;;;;;;;5.43;2.92;;;;;;;35.01;24.48;93670.16;5052833;28;20512;-44
2022/07/22 08:52:20;;;;;;;3.55;2.90;;;;;;;35.60;23.25;93671.19;5070884;28;20032;-43
2022/07/22 08:54:46;;;;;;;3.65;3.17;;;;;;;35.47;25.09;93672.56;5071289;28;20116;-42
2022/07/22 08:57:11;;;;;;;7.57;2.70;;;;;;;35.71;23.99;93663.31;5070935;28;20456;-44
2022/07/22 08:59:57;;;;;;;5.32;2.70;;;;;;;36.58;23.09;93675.69;5071266;28;20024;-42
2022/07/22 09:02:23;;;;;;;5.95;2.17;;;;;;;36.61;22.04;93677.16;5069740;28;20029;-46
2022/07/22 09:04:56;;;;;;;4.18;2.58;;;;;;;36.64;22.41;93677.88;5069710;28;20139;-42
2022/07/22 09:07:28;;;;;;;5.28;2.92;;;;;;;36.89;22.76;93679.31;5070031;28;20024;-44
2022/07/22 09:09:54;;;;;;;3.63;2.88;;;;;;;37.62;21.91;93679.88;5069573;28;20035;-44
2022/07/22 09:12:22;;;;;;;4.43;2.65;;;;;;;38.12;22.09;93679.59;5070467;28;20029;-42
2022/07/22 09:14:52;;;;;;;6.88;3.17;;;;;;;38.51;23.14;93682.97;5069404;28;20578;-45
2022/07/22 09:17:35;;;;;;;5.82;2.70;;;;;;;39.14;21.11;93695.47;5050631;28;20032;-42
2022/07/22 09:20:15;;;;;;;3.95;2.92;;;;;;;39.06;21.04;93694.81;5050714;28;20016;-44
2022/07/22 09:22:46;;;;;;;11.60;3.30;;;;;;;39.06;20.36;93691.91;5061812;28;20032;-42
2022/07/22 09:25:38;;;;;;;7.82;2.70;;;;;;;38.97;20.51;93694.16;5069432;28;20032;-42
2022/07/22 09:28:06;;;;;;;6.40;2.60;;;;;;;39.62;19.85;93694.25;5064669;28;20048;-44
2022/07/22 09:30:34;;;;;;;8.13;3.35;;;;;;;39.99;19.16;93680.78;5069112;28;20039;-44
2022/07/22 09:33:00;;;;;;;4.15;2.90;;;;;;;40.02;19.83;93688.00;5070019;28;20024;-43
2022/07/22 09:35:25;;;;;;;3.78;2.80;;;;;;;40.10;19.91;93696.56;5070496;28;20028;-44
2022/07/22 09:38:05;;;;;;;12.10;2.97;;;;;;;40.28;18.73;93694.88;5069505;28;20120;-43
2022/07/22 09:40:38;;;;;;;4.25;2.55;;;;;;;40.42;20.73;93700.47;5066134;28;20082;-43
2022/07/22 09:43:06;;;;;;;6.55;2.65;;;;;;;40.33;19.02;93699.13;5067948;28;20035;-42
2022/07/22 09:45:33;;;;;;;4.00;2.90;;;;;;;39.87;20.08;93700.47;5067326;28;20051;-44
2022/07/22 09:48:00;;;;;;;6.50;3.35;;;;;;;39.95;19.21;93698.19;5067122;28;20036;-44
2022/07/22 09:50:33;;;;;;;3.93;2.80;;;;;;;39.44;21.69;93700.19;5066163;28;20021;-42
2022/07/22 09:53:00;;;;;;;6.20;2.80;;;;;;;39.46;20.59;93700.19;5068921;28;20524;-42
2022/07/22 09:55:27;;;;;;;5.07;2.83;;;;;;;38.77;21.81;93699.41;5066880;28;20023;-42
2022/07/22 09:57:54;;;;;;;3.83;2.60;;;;;;;39.14;20.13;93697.63;5068399;28;20074;-43
2022/07/22 10:00:22;;;;;;;5.80;3.00;;;;;;;39.17;20.22;93694.00;5065637;28;20035;-43
2022/07/22 10:02:58;;;;;;;3.13;2.67;;;;;;;38.56;21.36;93696.66;5066910;28;20031;-43
2022/07/22 10:05:31;;;;;;;7.07;3.33;;;;;;;38.76;21.27;93695.81;5068399;28;20048;-42
2022/07/22 10:07:57;;;;;;;9.48;2.95;;;;;;;38.73;20.40;93693.66;5067250;28;20051;-43
2022/07/22 10:10:25;;;;;;;6.35;2.78;;;;;;;38.39;20.64;93704.00;5050459;28;20033;-43
2022/07/22 10:12:53;;;;;;;6.25;3.45;;;;;;;38.08;21.40;93688.28;5065600;28;20020;-44
2022/07/22 10:15:19;;;;;;;3.72;2.50;;;;;;;37.64;21.98;93694.25;5069666;28;20468;-45
2022/07/22 10:17:48;;;;;;;3.45;3.08;;;;;;;37.47;21.60;93690.69;5061519;28;20497;-43
2022/07/22 10:20:20;;;;;;;6.03;3.03;;;;;;;37.64;22.42;93692.06;5067983;28;20108;-43
2022/07/22 10:22:49;;;;;;;5.53;3.25;;;;;;;37.87;23.24;93681.94;5065536;28;20087;-42
2022/07/22 10:25:15;;;;;;;4.38;3.20;;;;;;;37.81;23.03;93684.84;5065708;28;20382;-43
2022/07/22 10:27:57;;;;;;;7.53;3.55;;;;;;;37.36;23.12;93689.28;5066826;28;20111;-41
2022/07/22 10:30:40;;;;;;;3.53;2.95;;;;;;;37.18;23.08;93680.69;5061674;28;20032;-42
2022/07/22 10:33:14;;;;;;;6.13;2.92;;;;;;;37.38;22.22;93685.72;5067209;28;20051;-43
2022/07/22 10:35:43;;;;;;;5.47;3.33;;;;;;;37.13;24.25;93682.88;5065290;28;20028;-46
2022/07/22 10:38:09;;;;;;;5.43;3.63;;;;;;;37.07;24.48;93668.50;5067946;28;20021;-44
2022/07/22 10:40:50;;;;;;;5.53;4.50;;;;;;;37.05;23.90;93677.13;5060173;28;20108;-43
2022/07/22 10:43:17;;;;;;;9.23;3.17;;;;;;;36.93;22.06;93685.03;5065459;28;20021;-44
2022/07/22 10:45:49;;;;;;;3.70;3.08;;;;;;;36.74;23.50;93681.44;5066791;28;20021;-44
2022/07/22 10:48:18;;;;;;;3.78;2.65;;;;;;;36.66;24.51;93683.63;5064620;28;20039;-43
2022/07/22 10:51:04;;;;;;;5.18;3.00;;;;;;;36.68;24.30;93681.47;5064580;28;20020;-43
2022/07/22 10:53:57;;;;;;;4.88;2.85;;;;;;;36.78;24.67;93681.44;5064844;28;20028;-40
2022/07/22 10:56:25;;;;;;;3.90;3.33;;;;;;;36.92;24.52;93683.63;5070248;28;20520;-42
2022/07/22 10:58:52;;;;;;;;;;;;;;;36.93;24.78;93687.94;5072119;28;20036;-45
2022/07/22 11:01:19;;;;;;;8.45;3.45;;;;;;;36.62;23.03;93678.59;5073327;28;20001;-42
2022/07/22 11:03:46;;;;;;;4.97;2.97;;;;;;;36.77;22.67;93680.03;5071949;28;20532;-40
2022/07/22 11:06:19;;;;;;;3.50;3.20;;;;;;;36.74;23.96;93681.44;5072896;28;20103;-44
2022/07/22 11:08:49;;;;;;;3.65;3.08;;;;;;;36.61;23.66;93662.75;5073385;28;20432;-40
2022/07/22 11:11:15;;;;;;;7.68;3.90;;;;;;;36.78;22.25;93675.69;5072799;28;20040;-43
2022/07/22 11:13:43;;;;;;;5.65;3.97;;;;;;;36.48;22.43;93678.59;5055204;28;20463;-49
2022/07/22 11:16:19;;;;;;;3.58;2.75;;;;;;;36.27;24.79;93680.72;5073090;28;20035;-43
2022/07/22 11:18:52;;;;;;;5.30;2.90;;;;;;;36.01;23.97;93677.78;5072920;28;20032;-44
2022/07/22 11:21:23;;;;;;;4.22;3.17;;;;;;;35.60;22.11;93682.69;5072850;28;20086;-47
2022/07/22 11:23:50;;;;;;;5.85;2.92;;;;;;;35.50;24.23;93676.88;5072914;28;20035;-44
2022/07/22 11:26:17;;;;;;;6.50;3.20;;;;;;;35.39;22.66;93674.66;5072990;28;20052;-44
2022/07/22 11:28:44;;;;;;;4.88;3.60;;;;;;;35.06;24.49;93668.75;5072523;28;20556;-42